Time;durP1;ratioP1;P1;durP2;ratioP2;P2;SDS_P1;SDS_P2;PMS_P1;PMS_P2;Temp;Humidity;BMP_temperature;BMP_pressure;BME280_temperature;BME280_humidity;BME280_pressure;Samples;Min_cycle;Max_cycle;Signal;HPM_P1;HPM_P2
2022/10/22 00:00:47;;;;;;;;;;;14.40;99.90;;;;;;5033098;28;20430;-74
2022/10/22 00:03:13;;;;;;;;;;;14.40;99.90;;;;;;5032271;28;19917;-76
2022/10/22 00:05:38;;;;;;;;;;;14.40;99.90;;;;;;5033135;28;20282;-75
2022/10/22 00:08:04;;;;;;;;;;;14.40;99.90;;;;;;5033373;28;19955;-75
2022/10/22 00:10:29;;;;;;;;;;;14.40;99.90;;;;;;5032324;28;19910;-74
2022/10/22 00:12:55;;;;;;;;;;;14.40;99.90;;;;;;5033114;28;19910;-75
2022/10/22 00:15:21;;;;;;;;;;;14.40;99.90;;;;;;5031657;28;19909;-74
2022/10/22 00:17:48;;;;;;;;;;;14.40;99.90;;;;;;5032809;28;19995;-73
2022/10/22 00:20:14;;;;;;;;;;;14.30;99.90;;;;;;5032082;28;19909;-74
2022/10/22 00:22:39;;;;;;;;;;;14.40;99.90;;;;;;5015183;28;19924;-74
2022/10/22 00:25:05;;;;;;;;;;;14.40;99.90;;;;;;5032779;28;19909;-74
2022/10/22 00:27:31;;;;;;;;;;;14.40;99.90;;;;;;5031908;28;19983;-74
2022/10/22 00:29:56;;;;;;;;;;;14.40;99.90;;;;;;5032691;28;19909;-73
2022/10/22 00:32:22;;;;;;;;;;;14.40;99.90;;;;;;5032384;28;19909;-73
2022/10/22 00:34:47;;;;;;;;;;;14.40;99.90;;;;;;5032754;28;19913;-73
2022/10/22 00:37:13;;;;;;;;;;;14.40;99.90;;;;;;5032592;28;19910;-75
2022/10/22 00:39:39;;;;;;;;;;;14.40;99.90;;;;;;5032747;28;20001;-74
2022/10/22 00:42:04;;;;;;;;;;;14.40;99.90;;;;;;5032646;28;19917;-73
2022/10/22 00:44:48;;;;;;;;;;;14.40;99.90;;;;;;5031938;28;20031;-74
2022/10/22 00:47:15;;;;;;;;;;;14.40;99.90;;;;;;5032094;28;19910;-77
2022/10/22 00:49:41;;;;;;;;;;;14.40;99.90;;;;;;5033039;28;19910;-78
2022/10/22 00:52:07;;;;;;;;;;;14.30;99.90;;;;;;5032394;28;19917;-76
2022/10/22 00:54:33;;;;;;;;;;;14.30;99.90;;;;;;5014291;28;20557;-77
2022/10/22 00:56:59;;;;;;;;;;;14.30;99.90;;;;;;5032612;28;19951;-75
2022/10/22 00:59:24;;;;;;;;;;;14.30;99.90;;;;;;5032137;28;19910;-76
2022/10/22 01:01:51;;;;;;;;;;;14.30;99.90;;;;;;5032369;28;20401;-76
2022/10/22 01:04:17;;;;;;;;;;;14.30;99.90;;;;;;5031421;28;19909;-76
2022/10/22 01:06:43;;;;;;;;;;;14.30;99.90;;;;;;5032383;28;20255;-75
2022/10/22 01:09:08;;;;;;;;;;;14.30;99.90;;;;;;5032600;28;19909;-75
2022/10/22 01:11:34;;;;;;;;;;;14.30;99.90;;;;;;5032241;28;20458;-75
2022/10/22 01:14:02;;;;;;;;;;;14.30;99.90;;;;;;5032459;28;19909;-75
2022/10/22 01:16:46;;;;;;;;;;;14.30;99.90;;;;;;5031681;28;19913;-75
2022/10/22 01:19:15;;;;;;;;;;;14.30;99.90;;;;;;5031152;28;19909;-75
2022/10/22 01:21:48;;;;;;;;;;;14.30;99.90;;;;;;5030808;28;19917;-74
2022/10/22 01:24:25;;;;;;;;;;;14.30;99.90;;;;;;5032363;28;19916;-76
2022/10/22 01:27:09;;;;;;;;;;;14.30;99.90;;;;;;5034137;28;19921;-74
2022/10/22 01:29:55;;;;;;;;;;;14.30;99.90;;;;;;5035071;28;19913;-74
2022/10/22 01:32:22;;;;;;;;;;;14.30;99.90;;;;;;5034693;28;20339;-74
2022/10/22 01:35:08;;;;;;;;;;;14.30;99.90;;;;;;5035962;28;19955;-74
2022/10/22 01:37:36;;;;;;;;;;;14.30;99.90;;;;;;5034354;28;19909;-75
2022/10/22 01:40:02;;;;;;;;;;;14.30;99.90;;;;;;5035599;28;19999;-74
2022/10/22 01:42:28;;;;;;;;;;;14.30;99.90;;;;;;5035074;28;19921;-76
2022/10/22 01:44:53;;;;;;;;;;;14.30;99.90;;;;;;5035717;28;20036;-75
2022/10/22 01:47:51;;;;;;;;;;;14.30;99.90;;;;;;5035115;28;19916;-74
2022/10/22 01:50:16;;;;;;;;;;;14.30;99.90;;;;;;4991277;28;20409;-75
2022/10/22 01:52:50;;;;;;;;;;;14.30;99.90;;;;;;5033981;28;19909;-74
2022/10/22 01:55:22;;;;;;;;;;;14.30;99.90;;;;;;5035548;28;19963;-73
2022/10/22 01:57:52;;;;;;;;;;;14.30;99.90;;;;;;5034287;28;19917;-74
2022/10/22 02:00:18;;;;;;;;;;;14.30;99.90;;;;;;5035651;28;19913;-75
2022/10/22 02:02:44;;;;;;;;;;;14.20;99.90;;;;;;5017150;28;20008;-74
2022/10/22 02:05:28;;;;;;;;;;;14.20;99.90;;;;;;5034068;28;20393;-74
2022/10/22 02:08:01;;;;;;;;;;;14.20;99.90;;;;;;5034143;28;20251;-75
2022/10/22 02:10:28;;;;;;;;;;;14.20;99.90;;;;;;5034696;28;19909;-74
2022/10/22 02:12:54;;;;;;;;;;;14.20;99.90;;;;;;5035542;28;19959;-73
2022/10/22 02:15:22;;;;;;;;;;;14.10;99.90;;;;;;5034305;28;20373;-75
2022/10/22 02:17:49;;;;;;;;;;;14.10;99.90;;;;;;5034590;28;20445;-74
2022/10/22 02:20:17;;;;;;;;;;;14.10;99.90;;;;;;5035033;28;20436;-75
2022/10/22 02:22:42;;;;;;;;;;;14.10;99.90;;;;;;5034073;28;20410;-74
2022/10/22 02:25:08;;;;;;;;;;;14.10;99.90;;;;;;5033618;28;19955;-75
2022/10/22 02:27:43;;;;;;;;;;;14.00;99.90;;;;;;5016393;28;19921;-74
2022/10/22 02:30:10;;;;;;;;;;;14.10;99.90;;;;;;5034765;28;19913;-75
2022/10/22 02:32:49;;;;;;;;;;;14.00;99.90;;;;;;5033691;28;20279;-74
2022/10/22 02:35:16;;;;;;;;;;;14.00;99.90;;;;;;5034749;28;19909;-75
2022/10/22 02:37:42;;;;;;;;;;;14.00;99.90;;;;;;5015582;28;19989;-75
2022/10/22 02:40:08;;;;;;;;;;;14.00;99.90;;;;;;5034429;28;20351;-75
2022/10/22 02:42:33;;;;;;;;;;;13.90;99.90;;;;;;5034052;28;19939;-75
2022/10/22 02:44:59;;;;;;;;;;;13.90;99.90;;;;;;5034353;28;19909;-75
2022/10/22 02:47:25;;;;;;;;;;;13.90;99.90;;;;;;5048472;28;19913;-75
2022/10/22 02:49:50;;;;;;;;;;;13.90;99.90;;;;;;5053978;28;19923;-74
2022/10/22 02:52:16;;;;;;;;;;;13.90;99.90;;;;;;5054343;28;19909;-74
2022/10/22 02:54:41;;;;;;;;;;;13.90;99.90;;;;;;5053512;28;19944;-74
2022/10/22 02:57:07;;;;;;;;;;;13.90;99.90;;;;;;5054289;28;19909;-74
2022/10/22 02:59:33;;;;;;;;;;;13.80;99.90;;;;;;5053951;28;19909;-74
2022/10/22 03:01:58;;;;;;;;;;;13.80;99.90;;;;;;5053928;28;19921;-73
2022/10/22 03:04:24;;;;;;;;;;;13.80;99.90;;;;;;5035718;28;19909;-75
2022/10/22 03:06:49;;;;;;;;;;;13.70;99.90;;;;;;5054134;28;19909;-74
2022/10/22 03:09:15;;;;;;;;;;;13.70;99.90;;;;;;5054096;28;19909;-74
2022/10/22 03:11:41;;;;;;;;;;;13.70;99.90;;;;;;5053258;28;19908;-74
2022/10/22 03:14:06;;;;;;;;;;;13.70;99.90;;;;;;5053873;28;20385;-74
2022/10/22 03:16:32;;;;;;;;;;;13.70;99.90;;;;;;5053230;28;19909;-74
2022/10/22 03:18:57;;;;;;;;;;;13.70;99.90;;;;;;5053823;28;20358;-73
2022/10/22 03:21:27;;;;;;;;;;;13.60;99.90;;;;;;5035685;28;19912;-75
2022/10/22 03:23:53;;;;;;;;;;;13.60;99.90;;;;;;5053494;28;20461;-74
2022/10/22 03:26:19;;;;;;;;;;;13.60;99.90;;;;;;5035545;28;20007;-73
2022/10/22 03:28:46;;;;;;;;;;;13.60;99.90;;;;;;5052890;28;19909;-75
2022/10/22 03:31:12;;;;;;;;;;;13.60;99.90;;;;;;5053478;28;19909;-74
2022/10/22 03:33:37;;;;;;;;;;;13.60;99.90;;;;;;5052642;28;19919;-74
2022/10/22 03:36:04;;;;;;;;;;;13.60;99.90;;;;;;5053551;28;19913;-74
2022/10/22 03:38:29;;;;;;;;;;;13.60;99.90;;;;;;5034914;28;19909;-74
2022/10/22 03:40:55;;;;;;;;;;;13.60;99.90;;;;;;5053459;28;20270;-74
2022/10/22 03:43:21;;;;;;;;;;;13.50;99.90;;;;;;5053257;28;20350;-74
2022/10/22 03:45:46;;;;;;;;;;;13.50;99.90;;;;;;5052760;28;19916;-74
2022/10/22 03:48:12;;;;;;;;;;;13.50;99.90;;;;;;5053268;28;20269;-73
2022/10/22 03:50:37;;;;;;;;;;;13.50;99.90;;;;;;5052614;28;20378;-75
2022/10/22 03:53:03;;;;;;;;;;;13.50;99.90;;;;;;5053652;28;19912;-74
2022/10/22 03:55:29;;;;;;;;;;;13.40;99.90;;;;;;5049492;28;19921;-75
2022/10/22 03:57:54;;;;;;;;;;;13.40;99.90;;;;;;5033763;28;19962;-72
2022/10/22 04:00:20;;;;;;;;;;;13.40;99.90;;;;;;5033429;28;19916;-74
2022/10/22 04:02:45;;;;;;;;;;;13.40;99.90;;;;;;5032201;28;19917;-74
2022/10/22 04:05:11;;;;;;;;;;;13.30;99.90;;;;;;5033209;28;19996;-74
2022/10/22 04:07:36;;;;;;;;;;;13.30;99.90;;;;;;5032650;28;19909;-74
2022/10/22 04:10:02;;;;;;;;;;;13.30;99.90;;;;;;5032845;28;20007;-73
2022/10/22 04:12:28;;;;;;;;;;;13.30;99.90;;;;;;5032660;28;20258;-76
2022/10/22 04:14:53;;;;;;;;;;;13.30;99.90;;;;;;5032871;28;19915;-74
2022/10/22 04:17:19;;;;;;;;;;;13.30;99.90;;;;;;5015260;28;19932;-74
2022/10/22 04:19:45;;;;;;;;;;;13.20;99.90;;;;;;5032068;28;20310;-73
2022/10/22 04:22:10;;;;;;;;;;;13.20;99.90;;;;;;5032446;28;19917;-74
2022/10/22 04:24:36;;;;;;;;;;;13.10;99.90;;;;;;5032514;28;19909;-74
2022/10/22 04:27:02;;;;;;;;;;;13.20;99.90;;;;;;5032406;28;19921;-74
2022/10/22 04:29:27;;;;;;;;;;;13.10;99.90;;;;;;5015503;28;20393;-74
2022/10/22 04:31:53;;;;;;;;;;;13.10;99.90;;;;;;5032564;28;20004;-73
2022/10/22 04:34:18;;;;;;;;;;;13.10;99.90;;;;;;5032778;28;19916;-74
2022/10/22 04:36:44;;;;;;;;;;;13.00;99.90;;;;;;5032291;28;20417;-74
2022/10/22 04:39:09;;;;;;;;;;;13.00;99.90;;;;;;5031476;28;19916;-74
2022/10/22 04:41:36;;;;;;;;;;;12.90;99.90;;;;;;5032146;28;19923;-74
2022/10/22 04:44:02;;;;;;;;;;;12.90;99.90;;;;;;5032861;28;19910;-74
2022/10/22 04:46:29;;;;;;;;;;;12.90;99.90;;;;;;5032391;28;20334;-73
2022/10/22 04:48:55;;;;;;;;;;;12.80;99.90;;;;;;5032092;28;19909;-75
2022/10/22 04:51:21;;;;;;;;;;;12.90;99.90;;;;;;5032895;28;20358;-74
2022/10/22 04:53:47;;;;;;;;;;;12.80;99.90;;;;;;5032025;28;19955;-75
2022/10/22 04:56:15;;;;;;;;;;;12.80;99.90;;;;;;5032301;28;19913;-74
2022/10/22 04:58:42;;;;;;;;;;;12.80;99.90;;;;;;5030353;28;20264;-74
2022/10/22 05:01:08;;;;;;;;;;;12.70;99.90;;;;;;5032943;28;20432;-74
2022/10/22 05:03:34;;;;;;;;;;;12.70;99.90;;;;;;5035488;28;19939;-74
2022/10/22 05:06:00;;;;;;;;;;;12.70;99.90;;;;;;5036320;28;20394;-74
2022/10/22 05:08:26;;;;;;;;;;;12.60;99.90;;;;;;5036050;28;19960;-74
2022/10/22 05:10:51;;;;;;;;;;;12.60;99.90;;;;;;5035509;28;19944;-74
2022/10/22 05:13:17;;;;;;;;;;;12.60;99.90;;;;;;5018772;28;20354;-75
2022/10/22 05:15:42;;;;;;;;;;;12.50;99.90;;;;;;5035292;28;19909;-75
2022/10/22 05:18:08;;;;;;;;;;;12.50;99.90;;;;;;5035866;28;19974;-74
2022/10/22 05:20:33;;;;;;;;;;;12.50;99.90;;;;;;5035649;28;20371;-76
2022/10/22 05:22:59;;;;;;;;;;;12.40;99.90;;;;;;5035944;28;19917;-75
2022/10/22 05:25:24;;;;;;;;;;;12.40;99.90;;;;;;5035799;28;19992;-74
2022/10/22 05:27:50;;;;;;;;;;;12.40;99.90;;;;;;5035300;28;19921;-74
2022/10/22 05:30:15;;;;;;;;;;;12.30;99.90;;;;;;5036076;28;20008;-74
2022/10/22 05:32:41;;;;;;;;;;;12.30;99.90;;;;;;5035296;28;19913;-73
2022/10/22 05:35:07;;;;;;;;;;;12.30;99.90;;;;;;5035823;28;19932;-74
2022/10/22 05:37:32;;;;;;;;;;;12.20;99.90;;;;;;5035888;28;19909;-75
2022/10/22 05:39:58;;;;;;;;;;;12.20;99.90;;;;;;5035180;28;20015;-74
2022/10/22 05:42:24;;;;;;;;;;;12.20;99.90;;;;;;5035568;28;20367;-74
2022/10/22 05:44:49;;;;;;;;;;;12.20;99.90;;;;;;5034730;28;19916;-74
2022/10/22 05:47:15;;;;;;;;;;;12.20;99.90;;;;;;5035020;28;20400;-73
2022/10/22 05:49:40;;;;;;;;;;;12.10;99.90;;;;;;5034781;28;19941;-74
2022/10/22 05:52:06;;;;;;;;;;;12.10;99.90;;;;;;5035425;28;20472;-74
2022/10/22 05:54:31;;;;;;;;;;;12.10;99.90;;;;;;5035680;28;19909;-75
2022/10/22 05:57:00;;;;;;;;;;;12.10;99.90;;;;;;5017208;28;19909;-75
2022/10/22 05:59:26;;;;;;;;;;;12.00;99.90;;;;;;5034830;28;19910;-75
2022/10/22 06:01:51;;;;;;;;;;;12.10;99.90;;;;;;5034675;28;19917;-74
2022/10/22 06:04:17;;;;;;;;;;;12.00;99.90;;;;;;5035103;28;20000;-74
2022/10/22 06:06:43;;;;;;;;;;;12.00;99.90;;;;;;5034624;28;20266;-74
2022/10/22 06:09:14;;;;;;;;;;;12.00;99.90;;;;;;5035398;28;20004;-74
2022/10/22 06:11:40;;;;;;;;;;;12.00;99.90;;;;;;5034643;28;19954;-75
2022/10/22 06:14:05;;;;;;;;;;;11.90;99.90;;;;;;5033713;28;19909;-75
2022/10/22 06:16:31;;;;;;;;;;;11.90;99.90;;;;;;5035117;28;20268;-73
2022/10/22 06:18:57;;;;;;;;;;;11.90;99.90;;;;;;5034538;28;20125;-74
2022/10/22 06:21:23;;;;;;;;;;;11.90;99.90;;;;;;5034821;28;19992;-73
2022/10/22 06:23:48;;;;;;;;;;;11.90;99.90;;;;;;5034455;28;20458;-75
2022/10/22 06:26:16;;;;;;;;;;;11.90;99.90;;;;;;5034658;28;19916;-74
2022/10/22 06:28:42;;;;;;;;;;;11.90;99.90;;;;;;5034420;28;19940;-74
2022/10/22 06:31:08;;;;;;;;;;;11.90;99.90;;;;;;5032454;28;20448;-74
2022/10/22 06:33:40;;;;;;;;;;;11.80;99.90;;;;;;5034771;28;19909;-74
2022/10/22 06:36:11;;;;;;;;;;;11.80;99.90;;;;;;5016911;28;20449;-73
2022/10/22 06:38:36;;;;;;;;;;;11.80;99.90;;;;;;5034310;28;19991;-74
2022/10/22 06:41:07;;;;;;;;;;;11.80;99.90;;;;;;5034194;28;19956;-74
2022/10/22 06:43:33;;;;;;;;;;;11.80;99.90;;;;;;5034600;28;19917;-74
2022/10/22 06:46:00;;;;;;;;;;;11.80;99.90;;;;;;5016300;28;19916;-73
2022/10/22 06:48:25;;;;;;;;;;;11.80;99.90;;;;;;5034611;28;19949;-74
2022/10/22 06:50:51;;;;;;;;;;;11.80;99.90;;;;;;5033780;28;19947;-73
2022/10/22 06:53:16;;;;;;;;;;;11.70;99.90;;;;;;5034294;28;19963;-73
2022/10/22 06:55:42;;;;;;;;;;;11.70;99.90;;;;;;5034092;28;19916;-75
2022/10/22 06:58:07;;;;;;;;;;;11.80;99.90;;;;;;5034392;28;19963;-74
2022/10/22 07:00:33;;;;;;;;;;;11.70;99.90;;;;;;5016566;28;20477;-74
2022/10/22 07:02:58;;;;;;;;;;;11.80;99.90;;;;;;5033496;28;20251;-75
2022/10/22 07:05:24;;;;;;;;;;;11.80;99.90;;;;;;5016471;28;19963;-74
2022/10/22 07:07:49;;;;;;;;;;;11.70;99.90;;;;;;5033516;28;19909;-75
2022/10/22 07:10:15;;;;;;;;;;;11.70;99.90;;;;;;5033791;28;19955;-75
2022/10/22 07:12:41;;;;;;;;;;;11.70;99.90;;;;;;5033745;28;19909;-76
2022/10/22 07:15:06;;;;;;;;;;;11.70;99.90;;;;;;5034369;28;19955;-73
2022/10/22 07:17:32;;;;;;;;;;;11.70;99.90;;;;;;5016221;28;20287;-74
2022/10/22 07:19:57;;;;;;;;;;;11.70;99.90;;;;;;5033343;28;20345;-74
2022/10/22 07:22:23;;;;;;;;;;;11.70;99.90;;;;;;5033625;28;19917;-74
2022/10/22 07:24:49;;;;;;;;;;;11.80;99.90;;;;;;5033180;28;19913;-73
2022/10/22 07:27:14;;;;;;;;;;;11.80;99.90;;;;;;5016068;28;19921;-74
2022/10/22 07:29:40;;;;;;;;;;;11.80;99.90;;;;;;5033805;28;19916;-75
2022/10/22 07:32:05;;;;;;;;;;;11.80;99.90;;;;;;5033703;28;20224;-73
2022/10/22 07:34:31;;;;;;;;;;;11.80;99.90;;;;;;5033574;28;19909;-74
2022/10/22 07:36:57;;;;;;;;;;;11.80;99.90;;;;;;5032821;28;19979;-74
2022/10/22 07:39:24;;;;;;;;;;;11.80;99.90;;;;;;5033737;28;20317;-74
2022/10/22 07:41:50;;;;;;;;;;;11.80;99.90;;;;;;5032572;28;20259;-73
2022/10/22 07:44:16;;;;;;;;;;;11.80;99.90;;;;;;5033278;28;19992;-73
2022/10/22 07:46:41;;;;;;;;;;;11.80;99.90;;;;;;5033333;28;20409;-74
2022/10/22 07:49:07;;;;;;;;;;;11.80;99.90;;;;;;5033081;28;19909;-73
2022/10/22 07:51:32;;;;;;;;;;;11.70;99.90;;;;;;5033170;28;19909;-74
2022/10/22 07:53:58;;;;;;;;;;;11.80;99.90;;;;;;5032905;28;20353;-75
2022/10/22 07:56:23;;;;;;;;;;;11.80;99.90;;;;;;5015718;28;19916;-74
2022/10/22 07:58:49;;;;;;;;;;;11.80;99.90;;;;;;5015085;28;19913;-73
2022/10/22 08:01:15;;;;;;;;;;;11.90;99.90;;;;;;5047371;28;19909;-73
2022/10/22 08:03:40;;;;;;;;;;;11.90;99.90;;;;;;5052940;28;19923;-73
2022/10/22 08:06:06;;;;;;;;;;;12.00;99.90;;;;;;5052444;28;20070;-73
2022/10/22 08:08:32;;;;;;;;;;;12.00;99.90;;;;;;5052891;28;20456;-73
2022/10/22 08:10:59;;;;;;;;;;;12.10;99.90;;;;;;5051898;28;19908;-73
2022/10/22 08:13:26;;;;;;;;;;;12.10;99.90;;;;;;5034749;28;20007;-75
2022/10/22 08:15:52;;;;;;;;;;;12.20;99.90;;;;;;5052045;28;19928;-73
2022/10/22 08:18:17;;;;;;;;;;;12.30;99.90;;;;;;5052195;28;19908;-74
2022/10/22 08:20:43;;;;;;;;;;;12.40;99.90;;;;;;5052752;28;19909;-75
2022/10/22 08:23:08;;;;;;;;;;;12.50;99.90;;;;;;5034245;28;19920;-74
2022/10/22 08:25:34;;;;;;;;;;;12.60;99.90;;;;;;5034812;28;19913;-74
2022/10/22 08:28:00;;;;;;;;;;;12.60;99.90;;;;;;5051667;28;20363;-73
2022/10/22 08:30:28;;;;;;;;;;;12.70;99.90;;;;;;5052755;28;19995;-73
2022/10/22 08:32:54;;;;;;;;;;;12.80;99.90;;;;;;5052135;28;20270;-73
2022/10/22 08:35:20;;;;;;;;;;;12.80;99.90;;;;;;5051501;28;19909;-74
2022/10/22 08:37:45;;;;;;;;;;;12.90;99.90;;;;;;5055827;28;19915;-74
2022/10/22 08:40:18;;;;;;;;;;;12.90;99.90;;;;;;5056205;28;19952;-73
2022/10/22 08:42:44;;;;;;;;;;;13.00;99.90;;;;;;5056827;28;19916;-73
2022/10/22 08:45:28;;;;;;;;;;;13.00;99.90;;;;;;5056721;28;19909;-73
2022/10/22 08:47:58;;;;;;;;;;;13.10;99.90;;;;;;5052836;28;19967;-74
2022/10/22 08:50:28;;;;;;;;;;;13.10;99.90;;;;;;5036647;28;19916;-74
2022/10/22 08:52:56;;;;;;;;;;;13.20;99.90;;;;;;5036032;28;19909;-74
2022/10/22 08:55:23;;;;;;;;;;;13.20;99.90;;;;;;5018804;28;20248;-74
2022/10/22 08:57:59;;;;;;;;;;;13.30;99.90;;;;;;5036004;28;20264;-75
2022/10/22 09:00:54;;;;;;;;;;;13.30;99.90;;;;;;5036709;28;19916;-73
2022/10/22 09:03:27;;;;;;;;;;;13.40;99.90;;;;;;5023020;28;19924;-73
2022/10/22 09:06:13;;;;;;;;;;;13.40;99.90;;;;;;5035935;28;19913;-74
2022/10/22 09:08:41;;;;;;;;;;;13.40;99.90;;;;;;5035473;28;19913;-74
2022/10/22 09:11:12;;;;;;;;;;;13.40;99.90;;;;;;5035475;28;19992;-73
2022/10/22 09:13:42;;;;;;;;;;;13.50;99.90;;;;;;5035889;28;19909;-73
2022/10/22 09:16:14;;;;;;;;;;;13.50;99.90;;;;;;5035431;28;19913;-73
2022/10/22 09:18:58;;;;;;;;;;;13.50;99.90;;;;;;5036165;28;19916;-74
2022/10/22 09:21:42;;;;;;;;;;;13.60;99.90;;;;;;5036041;28;20321;-74
2022/10/22 09:24:30;;;;;;;;;;;13.60;99.90;;;;;;5035578;28;20728;-74
2022/10/22 09:26:56;;;;;;;;;;;13.70;99.90;;;;;;5009313;28;19921;-74
2022/10/22 09:29:23;;;;;;;;;;;13.70;99.90;;;;;;5036387;28;19909;-73
2022/10/22 09:31:49;;;;;;;;;;;13.70;99.90;;;;;;5035697;28;20358;-74
2022/10/22 09:34:18;;;;;;;;;;;13.70;99.90;;;;;;5035348;28;19917;-74
2022/10/22 09:36:43;;;;;;;;;;;13.70;99.90;;;;;;5035812;28;20397;-74
2022/10/22 09:39:26;;;;;;;;;;;13.70;99.90;;;;;;5035307;28;19909;-73
2022/10/22 09:41:52;;;;;;;;;;;13.80;99.90;;;;;;5035228;28;19918;-74
2022/10/22 09:44:18;;;;;;;;;;;13.70;99.90;;;;;;5035528;28;20407;-73
2022/10/22 09:46:44;;;;;;;;;;;13.80;99.90;;;;;;5035482;28;19909;-73
2022/10/22 09:49:15;;;;;;;;;;;13.80;99.90;;;;;;5034561;28;20572;-73
2022/10/22 09:51:51;;;;;;;;;;;13.80;99.90;;;;;;5035837;28;20244;-74
2022/10/22 09:54:18;;;;;;;;;;;13.80;99.90;;;;;;5035018;28;20273;-74
2022/10/22 09:56:51;;;;;;;;;;;13.90;99.90;;;;;;5035395;28;19909;-73
2022/10/22 09:59:17;;;;;;;;;;;13.90;99.90;;;;;;5035670;28;19909;-73
2022/10/22 10:01:46;;;;;;;;;;;13.90;99.90;;;;;;5035181;28;20282;-74
2022/10/22 10:04:15;;;;;;;;;;;13.90;99.90;;;;;;5034753;28;19999;-74
2022/10/22 10:06:42;;;;;;;;;;;14.00;99.90;;;;;;5034780;28;20011;-74
2022/10/22 10:09:14;;;;;;;;;;;14.00;99.90;;;;;;5034800;28;19916;-74
2022/10/22 10:11:43;;;;;;;;;;;14.00;99.90;;;;;;5034800;28;20313;-74
2022/10/22 10:14:08;;;;;;;;;;;14.10;99.90;;;;;;5034175;28;20433;-74
2022/10/22 10:16:43;;;;;;;;;;;14.10;99.90;;;;;;5034502;28;19910;-74
2022/10/22 10:19:26;;;;;;;;;;;14.10;99.90;;;;;;5033644;28;19913;-74
2022/10/22 10:22:10;;;;;;;;;;;14.20;99.90;;;;;;5034860;28;19960;-74
2022/10/22 10:24:54;;;;;;;;;;;14.20;99.90;;;;;;5035872;28;19909;-74
2022/10/22 10:27:24;;;;;;;;;;;14.30;99.90;;;;;;5016744;28;20011;-74
2022/10/22 10:29:54;;;;;;;;;;;14.30;99.90;;;;;;5034189;28;20415;-74
2022/10/22 10:32:20;;;;;;;;;;;14.30;99.90;;;;;;5016118;28;20371;-74
2022/10/22 10:35:06;;;;;;;;;;;14.30;99.90;;;;;;5034045;28;19959;-74
2022/10/22 10:37:34;;;;;;;;;;;14.40;99.90;;;;;;5034037;28;19944;-76
2022/10/22 10:40:23;;;;;;;;;;;14.50;99.90;;;;;;5034766;28;19909;-75
2022/10/22 10:42:54;;;;;;;;;;;14.60;99.90;;;;;;5016983;28;20015;-75
2022/10/22 10:45:34;;;;;;;;;;;14.70;99.90;;;;;;5034107;28;19952;-75
2022/10/22 10:48:03;;;;;;;;;;;14.60;99.90;;;;;;5033367;28;19909;-74
2022/10/22 10:50:40;;;;;;;;;;;14.70;99.90;;;;;;5033828;28;19919;-74
2022/10/22 10:53:14;;;;;;;;;;;14.70;99.90;;;;;;5033794;28;19916;-75
2022/10/22 10:55:52;;;;;;;;;;;14.80;99.90;;;;;;5017094;28;19916;-75
2022/10/22 10:58:24;;;;;;;;;;;14.90;99.90;;;;;;5016441;28;19915;-76
2022/10/22 11:01:10;;;;;;;;;;;14.90;99.90;;;;;;5015901;28;19913;-75
2022/10/22 11:03:38;;;;;;;;;;;14.90;99.90;;;;;;5015543;28;20283;-75
2022/10/22 11:06:12;;;;;;;;;;;15.00;99.90;;;;;;5033744;28;19996;-75
2022/10/22 11:08:44;;;;;;;;;;;15.00;99.90;;;;;;5034203;28;19920;-75
2022/10/22 11:11:12;;;;;;;;;;;15.00;99.90;;;;;;5015726;28;19909;-74
2022/10/22 11:13:42;;;;;;;;;;;15.10;99.90;;;;;;5033947;28;20248;-75
2022/10/22 11:16:22;;;;;;;;;;;15.10;99.90;;;;;;5033302;28;19916;-74
2022/10/22 11:19:02;;;;;;;;;;;15.20;99.90;;;;;;5033171;28;19916;-74
2022/10/22 11:21:49;;;;;;;;;;;15.40;99.90;;;;;;5015694;28;19909;-75
2022/10/22 11:24:29;;;;;;;;;;;15.40;99.90;;;;;;5033109;28;20546;-75
2022/10/22 11:27:13;;;;;;;;;;;15.40;99.90;;;;;;5033465;28;19927;-77
2022/10/22 11:29:45;;;;;;;;;;;15.50;99.90;;;;;;5015880;28;19913;-75
2022/10/22 11:32:16;;;;;;;;;;;15.60;99.90;;;;;;5032933;28;19916;-75
2022/10/22 11:34:50;;;;;;;;;;;15.60;99.90;;;;;;5015972;28;19913;-74
2022/10/22 11:37:16;;;;;;;;;;;15.60;99.90;;;;;;5032778;28;20495;-75
2022/10/22 11:39:44;;;;;;;;;;;15.70;99.90;;;;;;5033655;28;19909;-75
2022/10/22 11:42:11;;;;;;;;;;;15.70;99.90;;;;;;5032758;28;19963;-75
2022/10/22 11:44:58;;;;;;;;;;;15.70;99.90;;;;;;5033466;28;19932;-76
2022/10/22 11:47:24;;;;;;;;;;;15.70;99.90;;;;;;5033181;28;19909;-74
2022/10/22 11:49:55;;;;;;;;;;;15.70;99.90;;;;;;5033239;28;19909;-74
2022/10/22 11:52:23;;;;;;;;;;;15.70;99.90;;;;;;5032718;28;20461;-74
2022/10/22 11:54:52;;;;;;;;;;;15.70;99.90;;;;;;5032828;28;19935;-74
2022/10/22 11:57:19;;;;;;;;;;;15.80;99.90;;;;;;5032695;28;20761;-75
2022/10/22 11:59:45;;;;;;;;;;;15.80;99.90;;;;;;5033061;28;19932;-74
2022/10/22 12:02:23;;;;;;;;;;;15.80;99.90;;;;;;5032598;28;20370;-75
2022/10/22 12:04:48;;;;;;;;;;;15.80;99.90;;;;;;5032315;28;19913;-75
2022/10/22 12:07:43;;;;;;;;;;;15.80;99.90;;;;;;5032102;28;20281;-75
2022/10/22 12:10:17;;;;;;;;;;;15.80;99.90;;;;;;5018680;28;19913;-74
2022/10/22 12:12:43;;;;;;;;;;;15.80;99.90;;;;;;5032983;28;19909;-74
2022/10/22 12:15:27;;;;;;;;;;;15.80;99.90;;;;;;5033035;28;19920;-74
2022/10/22 12:18:00;;;;;;;;;;;15.90;99.90;;;;;;5033907;28;19970;-74
2022/10/22 12:20:26;;;;;;;;;;;15.90;99.90;;;;;;5032987;28;20386;-76
2022/10/22 12:22:52;;;;;;;;;;;16.10;99.90;;;;;;5014867;28;20051;-75
2022/10/22 12:25:21;;;;;;;;;;;16.20;99.90;;;;;;5014295;28;20221;-76
2022/10/22 12:27:56;;;;;;;;;;;16.30;99.90;;;;;;5032647;28;20012;-74
2022/10/22 12:30:23;;;;;;;;;;;16.30;99.90;;;;;;5032186;28;19921;-75
2022/10/22 12:32:53;;;;;;;;;;;16.30;99.90;;;;;;5015018;28;19936;-75
2022/10/22 12:35:20;;;;;;;;;;;16.40;99.90;;;;;;5032368;28;20512;-76
2022/10/22 12:37:50;;;;;;;;;;;16.40;99.90;;;;;;5032665;28;19913;-76
2022/10/22 12:40:27;;;;;;;;;;;16.50;99.90;;;;;;5028766;28;20316;-76
2022/10/22 12:42:57;;;;;;;;;;;16.50;99.90;;;;;;5020972;28;19917;-75
2022/10/22 12:45:27;;;;;;;;;;;16.50;99.90;;;;;;5022214;28;19909;-75
2022/10/22 12:48:00;;;;;;;;;;;16.50;99.90;;;;;;5023035;28;20024;-75
2022/10/22 12:50:32;;;;;;;;;;;16.50;99.90;;;;;;5020161;28;19909;-75
2022/10/22 12:52:57;;;;;;;;;;;16.50;99.90;;;;;;5000626;28;19916;-75
2022/10/22 12:55:24;;;;;;;;;;;16.50;99.90;;;;;;5013135;28;19910;-76
2022/10/22 12:57:50;;;;;;;;;;;16.50;99.90;;;;;;5014628;28;19915;-75
2022/10/22 13:00:23;;;;;;;;;;;16.50;99.90;;;;;;5031694;28;19915;-75
2022/10/22 13:02:49;;;;;;;;;;;16.60;99.90;;;;;;5032386;28;20028;-75
2022/10/22 13:05:21;;;;;;;;;;;16.60;99.90;;;;;;5032263;28;19944;-75
2022/10/22 13:07:48;;;;;;;;;;;16.60;99.90;;;;;;5033124;28;19909;-76
2022/10/22 13:10:16;;;;;;;;;;;16.60;99.90;;;;;;5031801;28;19909;-75
2022/10/22 13:12:43;;;;;;;;;;;16.60;99.90;;;;;;5032285;28;19962;-74
2022/10/22 13:15:31;;;;;;;;;;;16.60;99.90;;;;;;5031932;28;19914;-75
2022/10/22 13:18:04;;;;;;;;;;;16.60;99.90;;;;;;5032446;28;20369;-75
2022/10/22 13:20:30;;;;;;;;;;;16.60;99.90;;;;;;5032393;28;19958;-75
2022/10/22 13:22:59;;;;;;;;;;;16.50;99.90;;;;;;5034192;28;19917;-74
2022/10/22 13:25:34;;;;;;;;;;;16.40;99.90;;;;;;5035353;28;20324;-74
2022/10/22 13:28:00;;;;;;;;;;;16.50;99.90;;;;;;5017886;28;19921;-74
2022/10/22 13:30:33;;;;;;;;;;;16.40;99.90;;;;;;5035269;28;19962;-75
2022/10/22 13:33:19;;;;;;;;;;;16.50;99.90;;;;;;5035597;28;19913;-75
2022/10/22 13:35:44;;;;;;;;;;;16.50;99.90;;;;;;5007675;28;19955;-75
2022/10/22 13:38:20;;;;;;;;;;;16.40;99.90;;;;;;5017412;28;20383;-75
2022/10/22 13:40:46;;;;;;;;;;;16.50;99.90;;;;;;5017965;28;19909;-75
2022/10/22 13:43:12;;;;;;;;;;;16.50;99.90;;;;;;5035064;28;20274;-75
2022/10/22 13:45:38;;;;;;;;;;;16.60;99.90;;;;;;5035618;28;19913;-75
2022/10/22 13:48:04;;;;;;;;;;;16.60;99.90;;;;;;5035387;28;19917;-77
2022/10/22 13:50:29;;;;;;;;;;;16.70;99.90;;;;;;5035026;28;20320;-75
2022/10/22 13:52:56;;;;;;;;;;;16.60;99.90;;;;;;5035533;28;19910;-75
2022/10/22 13:55:24;;;;;;;;;;;16.70;99.90;;;;;;5034508;28;19909;-75
2022/10/22 13:57:50;;;;;;;;;;;16.70;99.90;;;;;;5035389;28;19909;-74
2022/10/22 14:00:17;;;;;;;;;;;16.70;99.90;;;;;;5035799;28;19963;-75
2022/10/22 14:02:44;;;;;;;;;;;16.70;99.90;;;;;;5036095;28;19917;-77
2022/10/22 14:05:10;;;;;;;;;;;16.70;99.90;;;;;;5017037;28;19956;-76
2022/10/22 14:07:36;;;;;;;;;;;16.60;99.90;;;;;;5035148;28;19952;-75
2022/10/22 14:10:02;;;;;;;;;;;16.70;99.90;;;;;;5016953;28;19971;-75
2022/10/22 14:12:28;;;;;;;;;;;16.70;99.90;;;;;;5034925;28;19915;-76
2022/10/22 14:14:53;;;;;;;;;;;16.80;99.90;;;;;;5034614;28;20282;-77
2022/10/22 14:17:19;;;;;;;;;;;16.80;99.90;;;;;;5034063;28;19909;-75
2022/10/22 14:19:46;;;;;;;;;;;16.80;99.90;;;;;;5034519;28;19991;-75
2022/10/22 14:22:16;;;;;;;;;;;16.70;99.90;;;;;;5033998;28;19975;-75
2022/10/22 14:24:41;;;;;;;;;;;16.70;99.90;;;;;;5034480;28;19991;-74